createdAt,value
2023-08-27T00:02:17.365Z,20.23
2023-08-27T00:05:16.306Z,15.77
2023-08-27T00:08:14.349Z,17.83
2023-08-27T00:11:12.295Z,19.95
2023-08-27T00:14:10.337Z,18.83
2023-08-27T00:17:10.305Z,15.80
2023-08-27T00:20:10.154Z,15.95
2023-08-27T00:23:08.359Z,16.80
2023-08-27T00:26:05.343Z,13.38
2023-08-27T00:29:03.300Z,17.25
2023-08-27T00:32:01.990Z,17.15
2023-08-27T00:35:03.336Z,15.80
2023-08-27T00:38:01.443Z,16.27
2023-08-27T00:40:59.287Z,13.32
2023-08-27T00:43:56.385Z,13.95
2023-08-27T00:46:55.346Z,14.10
2023-08-27T00:49:53.490Z,13.13
2023-08-27T00:52:51.331Z,14.20
2023-08-27T00:55:51.531Z,12.57
2023-08-27T00:58:49.316Z,14.07
2023-08-27T01:01:47.433Z,15.43
2023-08-27T01:04:45.331Z,12.88
2023-08-27T01:08:32.374Z,15.65
2023-08-27T01:11:39.352Z,12.37
2023-08-27T01:14:50.336Z,14.30
2023-08-27T01:17:55.383Z,42.90
2023-08-27T01:20:52.456Z,14.25
2023-08-27T01:23:50.378Z,13.57
2023-08-27T01:27:04.447Z,18.30
2023-08-27T01:30:11.372Z,16.10
2023-08-27T01:33:22.466Z,15.98
2023-08-27T01:36:20.339Z,14.93
2023-08-27T01:39:20.432Z,14.18
2023-08-27T01:42:18.361Z,13.07
2023-08-27T01:45:17.917Z,15.70
2023-08-27T01:48:16.421Z,14.05
2023-08-27T01:51:14.525Z,14.50
2023-08-27T01:54:12.435Z,14.60
2023-08-27T01:57:10.533Z,14.13
2023-08-27T02:00:08.427Z,18.40
2023-08-27T02:03:21.425Z,14.27
2023-08-27T02:06:25.470Z,15.55
2023-08-27T02:09:22.472Z,15.63
2023-08-27T02:12:20.427Z,17.55
2023-08-27T02:15:18.486Z,14.65
2023-08-27T02:18:16.438Z,17.15
2023-08-27T02:21:13.474Z,13.48
2023-08-27T02:24:11.430Z,16.60
2023-08-27T02:27:09.461Z,14.57
2023-08-27T02:30:07.471Z,15.57
2023-08-27T02:33:05.473Z,15.30
2023-08-27T02:36:03.476Z,20.55
2023-08-27T02:39:01.534Z,13.60
2023-08-27T02:41:59.434Z,14.90
2023-08-27T02:44:57.481Z,14.90
2023-08-27T02:47:55.480Z,15.55
2023-08-27T02:50:52.468Z,16.40
2023-08-27T02:53:50.516Z,15.05
2023-08-27T02:56:47.501Z,16.60
2023-08-27T02:59:45.453Z,16.35
2023-08-27T03:02:43.518Z,17.48
2023-08-27T03:05:48.556Z,20.48
2023-08-27T03:08:46.595Z,15.63
2023-08-27T03:11:43.485Z,16.80
2023-08-27T03:14:34.658Z,17.52
2023-08-27T03:17:38.472Z,15.63
2023-08-27T03:20:30.252Z,17.33
2023-08-27T03:23:37.469Z,15.30
2023-08-27T03:26:28.749Z,17.40
2023-08-27T03:29:34.477Z,19.35
2023-08-27T03:32:25.724Z,15.73
2023-08-27T03:35:30.506Z,20.98
2023-08-27T03:38:21.727Z,21.35
2023-08-27T03:41:26.481Z,14.20
2023-08-27T03:44:17.801Z,18.73
2023-08-27T03:47:22.548Z,18.20
2023-08-27T03:50:13.797Z,17.45
2023-08-27T03:53:19.472Z,16.62
2023-08-27T03:56:10.828Z,17.50
2023-08-27T03:59:15.487Z,19.33
2023-08-27T04:02:08.305Z,18.95
2023-08-27T04:05:13.534Z,18.90
2023-08-27T04:08:04.918Z,17.75
2023-08-27T04:11:09.530Z,21.77
2023-08-27T04:14:00.748Z,17.17
2023-08-27T04:17:05.510Z,21.50
2023-08-27T04:19:56.749Z,19.60
2023-08-27T04:23:00.780Z,18.60
2023-08-27T04:25:52.628Z,22.40
2023-08-27T04:28:57.505Z,18.48
2023-08-27T04:32:08.504Z,25.52
2023-08-27T04:35:12.478Z,21.25
2023-08-27T04:38:10.800Z,20.65
2023-08-27T04:44:07.606Z,20.40
2023-08-27T04:47:07.514Z,17.95
2023-08-27T04:50:05.550Z,21.75
2023-08-27T04:53:03.503Z,21.65
2023-08-27T04:56:01.750Z,22.35
2023-08-27T04:58:59.544Z,28.45
2023-08-27T05:01:59.967Z,15.38
2023-08-27T05:04:57.531Z,21.40
2023-08-27T05:07:55.588Z,15.90
2023-08-27T05:10:53.591Z,16.52
2023-08-27T05:13:50.588Z,20.58
2023-08-27T05:16:48.562Z,19.45
2023-08-27T05:19:46.694Z,18.08
2023-08-27T05:22:44.618Z,21.60
2023-08-27T05:25:42.931Z,21.60
2023-08-27T05:28:42.572Z,18.98
2023-08-27T05:31:40.778Z,21.90
2023-08-27T05:34:38.585Z,19.55
2023-08-27T05:37:36.668Z,17.20
2023-08-27T05:40:34.590Z,22.95
2023-08-27T05:43:31.610Z,21.17
2023-08-27T05:46:29.606Z,19.00
2023-08-27T05:49:26.651Z,19.48
2023-08-27T05:52:24.612Z,18.05
2023-08-27T05:55:22.627Z,17.87
2023-08-27T05:58:20.596Z,15.25
2023-08-27T06:01:18.667Z,16.30
2023-08-27T06:04:16.554Z,18.73
2023-08-27T06:07:13.672Z,15.13
2023-08-27T06:10:11.592Z,13.70
2023-08-27T06:13:22.584Z,17.48
2023-08-27T06:16:26.624Z,14.18
2023-08-27T06:19:28.639Z,14.20
2023-08-27T06:22:34.594Z,12.68
2023-08-27T06:25:32.686Z,18.08
2023-08-27T06:28:30.594Z,14.30
2023-08-27T06:31:28.072Z,13.88
2023-08-27T06:34:32.677Z,14.50
2023-08-27T06:37:43.612Z,17.30
2023-08-27T06:40:48.629Z,13.93
2023-08-27T06:43:45.701Z,16.73
2023-08-27T06:46:43.616Z,14.13
2023-08-27T06:49:41.749Z,15.30
2023-08-27T06:52:39.648Z,14.70
2023-08-27T06:55:37.729Z,15.00
2023-08-27T06:58:36.680Z,13.27
2023-08-27T07:01:34.725Z,15.15
2023-08-27T07:04:32.667Z,14.73
2023-08-27T07:07:30.751Z,15.07
2023-08-27T07:10:28.678Z,13.98
2023-08-27T07:13:25.723Z,13.68
2023-08-27T07:16:23.681Z,15.93
2023-08-27T07:19:21.745Z,15.75
2023-08-27T07:22:19.707Z,13.62
2023-08-27T07:25:19.515Z,15.52
2023-08-27T07:28:17.675Z,17.17
2023-08-27T07:31:15.796Z,13.52
2023-08-27T07:34:19.694Z,13.48
2023-08-27T07:37:10.728Z,14.52
2023-08-27T07:40:16.697Z,12.05
2023-08-27T07:43:07.841Z,11.85
2023-08-27T07:46:11.827Z,12.80
2023-08-27T07:49:02.751Z,12.60
2023-08-27T07:52:07.713Z,13.25
2023-08-27T07:54:58.793Z,13.45
2023-08-27T07:58:03.853Z,12.93
2023-08-27T08:01:05.923Z,15.95
2023-08-27T08:04:03.794Z,14.48
2023-08-27T08:06:55.049Z,13.30
2023-08-27T08:09:59.710Z,10.75
2023-08-27T08:12:52.761Z,11.00
2023-08-27T08:16:00.747Z,10.65
2023-08-27T08:18:52.043Z,12.60
2023-08-27T08:21:55.714Z,10.45
2023-08-27T08:24:47.335Z,11.05
2023-08-27T08:27:51.698Z,10.50
2023-08-27T08:30:49.314Z,10.55
2023-08-27T08:33:53.757Z,9.60
2023-08-27T08:36:45.035Z,13.88
2023-08-27T08:39:49.744Z,11.48
2023-08-27T08:42:49.292Z,12.95
2023-08-27T08:46:18.875Z,9.38
2023-08-27T08:49:15.228Z,12.85
2023-08-27T08:52:22.750Z,10.25
2023-08-27T08:55:15.901Z,10.93
2023-08-27T08:58:25.750Z,10.20
2023-08-27T09:01:18.450Z,10.73
2023-08-27T09:04:29.742Z,12.55
2023-08-27T09:07:29.085Z,13.00
2023-08-27T09:10:33.807Z,12.48
2023-08-27T09:13:25.120Z,10.85
2023-08-27T09:16:29.829Z,15.85
2023-08-27T09:19:21.134Z,10.20
2023-08-27T09:22:24.853Z,12.37
2023-08-27T09:25:16.057Z,10.85
2023-08-27T09:28:21.863Z,11.18
2023-08-27T09:31:52.453Z,12.05
2023-08-27T09:34:57.808Z,11.02
2023-08-27T09:37:49.095Z,12.93
2023-08-27T09:40:53.781Z,10.18
2023-08-27T09:43:55.065Z,12.37
2023-08-27T09:47:00.801Z,9.60
2023-08-27T09:49:52.110Z,15.48
2023-08-27T09:52:56.837Z,9.93
2023-08-27T09:55:51.116Z,10.98
2023-08-27T09:58:55.867Z,9.65
2023-08-27T10:01:48.824Z,8.55
2023-08-27T10:05:04.860Z,9.90
2023-08-27T10:08:03.647Z,9.98
2023-08-27T10:11:24.878Z,10.65
2023-08-27T10:14:18.955Z,10.38
2023-08-27T10:17:25.000Z,10.75
2023-08-27T10:20:17.156Z,10.13
2023-08-27T10:23:23.836Z,11.18
2023-08-27T10:26:15.608Z,11.38
2023-08-27T10:29:20.848Z,9.20
2023-08-27T10:32:12.135Z,11.63
2023-08-27T10:35:16.881Z,14.82
2023-08-27T10:38:09.198Z,11.70
2023-08-27T10:41:14.930Z,8.63
2023-08-27T10:44:10.033Z,12.85
2023-08-27T10:47:24.943Z,11.07
2023-08-27T10:50:21.787Z,9.18
2023-08-27T10:53:26.934Z,11.48
2023-08-27T10:56:37.418Z,10.90
2023-08-27T10:59:42.915Z,8.32
2023-08-27T11:02:59.212Z,8.68
2023-08-27T11:06:26.895Z,13.70
2023-08-27T11:09:23.504Z,11.25
2023-08-27T11:12:40.910Z,8.15
2023-08-27T11:15:32.728Z,8.25
2023-08-27T11:18:56.923Z,9.00
2023-08-27T11:22:06.647Z,9.07
2023-08-27T11:25:10.911Z,10.63
2023-08-27T11:28:03.394Z,11.27
2023-08-27T11:31:08.952Z,11.02
2023-08-27T11:34:01.267Z,8.60
2023-08-27T11:37:04.962Z,8.60
2023-08-27T11:39:56.180Z,7.65
2023-08-27T11:43:07.985Z,7.93
2023-08-27T11:45:59.317Z,8.73
2023-08-27T11:49:03.941Z,7.80
2023-08-27T11:51:59.645Z,9.50
2023-08-27T11:55:05.007Z,9.65
2023-08-27T11:57:56.335Z,9.07
2023-08-27T12:01:07.996Z,9.50
2023-08-27T12:03:59.384Z,8.95
2023-08-27T12:07:07.986Z,12.02
2023-08-27T12:10:02.087Z,11.00
2023-08-27T12:13:05.974Z,9.87
2023-08-27T12:15:57.294Z,8.38
2023-08-27T12:19:01.989Z,7.97
2023-08-27T12:21:54.449Z,7.37
2023-08-27T12:24:58.992Z,9.20
2023-08-27T12:27:49.286Z,15.48
2023-08-27T12:31:06.106Z,12.18
2023-08-27T12:34:04.648Z,9.40
2023-08-27T12:37:09.062Z,8.43
2023-08-27T12:40:00.457Z,6.57
2023-08-27T12:43:06.041Z,7.53
2023-08-27T12:45:57.389Z,10.32
2023-08-27T12:49:02.011Z,8.90
2023-08-27T12:51:53.898Z,9.60
2023-08-27T12:54:58.064Z,9.57
2023-08-27T12:57:49.290Z,9.00
2023-08-27T13:00:54.071Z,7.85
2023-08-27T13:03:45.418Z,12.23
2023-08-27T13:06:51.051Z,8.10
2023-08-27T13:09:42.323Z,8.70
2023-08-27T13:12:46.109Z,9.93
2023-08-27T13:15:37.288Z,9.38
2023-08-27T13:18:42.075Z,8.93
2023-08-27T13:21:33.363Z,6.87
2023-08-27T13:24:38.072Z,8.38
2023-08-27T13:27:30.661Z,8.30
2023-08-27T13:30:35.088Z,8.30
2023-08-27T13:33:26.363Z,11.07
2023-08-27T13:36:37.090Z,8.35
2023-08-27T13:39:35.304Z,11.55
2023-08-27T13:42:39.150Z,12.02
2023-08-27T13:45:30.326Z,8.77
2023-08-27T13:48:35.093Z,9.40
2023-08-27T13:51:26.477Z,7.97
2023-08-27T13:54:31.084Z,8.30
2023-08-27T13:57:22.408Z,9.10
2023-08-27T14:00:27.081Z,10.65
2023-08-27T14:03:18.466Z,9.48
2023-08-27T14:06:23.127Z,7.25
2023-08-27T14:09:14.453Z,9.52
2023-08-27T14:12:19.165Z,7.90
2023-08-27T14:15:30.113Z,9.48
2023-08-27T14:18:34.124Z,7.78
2023-08-27T14:21:45.122Z,10.77
2023-08-27T14:24:49.108Z,6.93
2023-08-27T14:27:46.395Z,8.82
2023-08-27T14:30:44.180Z,10.10
2023-08-27T14:33:41.214Z,10.60
2023-08-27T14:36:39.113Z,7.53
2023-08-27T14:39:37.896Z,8.13
2023-08-27T14:45:36.167Z,9.02
2023-08-27T14:48:40.186Z,12.32
2023-08-27T14:51:31.184Z,10.65
2023-08-27T14:54:35.146Z,7.72
2023-08-27T14:57:33.269Z,12.35
2023-08-27T15:00:31.197Z,11.20
2023-08-27T15:03:22.564Z,9.32
2023-08-27T15:06:27.140Z,10.43
2023-08-27T15:09:18.404Z,11.35
2023-08-27T15:12:30.194Z,13.82
2023-08-27T15:15:23.214Z,9.88
2023-08-27T15:18:28.200Z,12.45
2023-08-27T15:21:19.580Z,10.40
2023-08-27T15:24:24.168Z,12.85
2023-08-27T15:27:15.495Z,15.77
2023-08-27T15:30:20.250Z,14.68
2023-08-27T15:33:11.450Z,9.63
2023-08-27T15:36:15.242Z,8.88
2023-08-27T15:39:06.905Z,10.25
2023-08-27T15:42:11.194Z,8.05
2023-08-27T15:45:01.595Z,12.63
2023-08-27T15:48:05.609Z,10.82
2023-08-27T15:50:56.504Z,8.80
2023-08-27T15:54:01.222Z,13.50
2023-08-27T15:56:52.645Z,12.10
2023-08-27T15:59:57.229Z,11.90
2023-08-27T16:02:48.530Z,12.52
2023-08-27T16:05:53.266Z,10.73
2023-08-27T16:08:45.010Z,10.70
2023-08-27T16:11:56.288Z,10.52
2023-08-27T16:14:53.532Z,14.80
2023-08-27T16:17:58.293Z,14.00
2023-08-27T16:20:49.617Z,17.37
2023-08-27T16:23:53.334Z,12.10
2023-08-27T16:26:44.480Z,11.85
2023-08-27T16:29:49.250Z,13.45
2023-08-27T16:32:39.619Z,13.62
2023-08-27T16:35:44.249Z,17.00
2023-08-27T16:38:35.548Z,16.62
2023-08-27T16:41:40.319Z,11.45
2023-08-27T16:44:31.531Z,12.07
2023-08-27T16:47:35.300Z,15.02
2023-08-27T16:50:26.561Z,12.30
2023-08-27T16:53:31.299Z,12.60
2023-08-27T16:56:42.266Z,12.75
2023-08-27T16:59:46.303Z,13.50
2023-08-27T17:02:44.473Z,15.15
2023-08-27T17:05:42.313Z,13.40
2023-08-27T17:08:39.330Z,14.15
2023-08-27T17:11:37.334Z,16.08
2023-08-27T17:14:34.360Z,13.30
2023-08-27T17:17:39.387Z,16.37
2023-08-27T17:20:30.399Z,14.38
2023-08-27T17:23:34.299Z,15.30
2023-08-27T17:26:25.484Z,14.32
2023-08-27T17:29:30.324Z,20.73
2023-08-27T17:32:21.505Z,13.02
2023-08-27T17:35:26.353Z,12.48
2023-08-27T17:38:17.369Z,13.20
2023-08-27T17:41:24.304Z,20.10
2023-08-27T17:44:22.427Z,17.95
2023-08-27T17:47:20.346Z,12.15
2023-08-27T17:50:13.745Z,12.88
2023-08-27T17:53:18.479Z,15.35
2023-08-27T17:56:09.691Z,11.88
2023-08-27T17:59:15.470Z,21.10
2023-08-27T18:02:06.695Z,13.68
2023-08-27T18:05:11.353Z,16.17
2023-08-27T18:08:03.188Z,14.80
2023-08-27T18:11:07.389Z,14.18
2023-08-27T18:13:58.613Z,16.15
2023-08-27T18:17:03.415Z,16.42
2023-08-27T18:19:54.612Z,20.05
2023-08-27T18:22:59.394Z,15.23
2023-08-27T18:25:50.587Z,14.30
2023-08-27T18:28:54.374Z,21.37
2023-08-27T18:31:46.239Z,19.23
2023-08-27T18:34:52.384Z,17.12
2023-08-27T18:37:43.732Z,20.27
2023-08-27T18:40:48.447Z,18.42
2023-08-27T18:43:39.743Z,18.73
2023-08-27T18:46:45.383Z,19.67
2023-08-27T18:49:36.816Z,15.32
2023-08-27T18:52:40.404Z,16.23
2023-08-27T18:55:31.806Z,15.63
2023-08-27T18:58:36.474Z,22.67
2023-08-27T19:01:28.208Z,14.20
2023-08-27T19:04:34.412Z,12.27
2023-08-27T19:07:24.633Z,18.48
2023-08-27T19:10:28.635Z,18.08
2023-08-27T19:13:39.419Z,18.25
2023-08-27T19:16:44.462Z,17.08
2023-08-27T19:19:41.523Z,15.38
2023-08-27T19:22:39.869Z,15.60
2023-08-27T19:25:38.501Z,15.18
2023-08-27T19:28:36.506Z,16.70
2023-08-27T19:31:45.933Z,17.37
2023-08-27T19:34:45.330Z,17.48
2023-08-27T19:37:42.474Z,15.20
2023-08-27T19:40:40.438Z,17.37
2023-08-27T19:43:37.502Z,17.12
2023-08-27T19:46:35.488Z,15.18
2023-08-27T19:49:32.694Z,12.93
2023-08-27T19:52:30.514Z,16.25
2023-08-27T19:55:28.536Z,18.95
2023-08-27T19:58:26.486Z,51.30
2023-08-27T20:01:24.563Z,36.83
2023-08-27T20:04:22.480Z,26.17
2023-08-27T20:07:20.583Z,17.80
2023-08-27T20:10:18.522Z,20.58
2023-08-27T20:13:15.829Z,17.98
2023-08-27T20:16:13.549Z,17.33
2023-08-27T20:19:24.461Z,16.08
2023-08-27T20:22:28.507Z,15.85
2023-08-27T20:25:25.538Z,16.50
2023-08-27T20:28:25.550Z,18.52
2023-08-27T20:31:23.637Z,15.43
2023-08-27T20:34:21.528Z,14.90
2023-08-27T20:37:19.707Z,15.43
2023-08-27T20:40:18.550Z,17.48
2023-08-27T20:43:15.680Z,17.00
2023-08-27T20:46:13.547Z,21.52
2023-08-27T20:49:10.610Z,17.80
2023-08-27T20:52:07.544Z,16.00
2023-08-27T20:55:19.486Z,16.30
2023-08-27T20:58:23.488Z,14.82
2023-08-27T21:01:20.702Z,17.87
2023-08-27T21:04:24.617Z,20.92
2023-08-27T21:07:15.608Z,16.10
2023-08-27T21:10:20.539Z,19.45
2023-08-27T21:13:11.708Z,13.75
2023-08-27T21:16:16.615Z,19.70
2023-08-27T21:19:13.618Z,17.98
2023-08-27T21:22:11.596Z,19.65
2023-08-27T21:25:10.148Z,16.02
2023-08-27T21:28:08.609Z,16.47
2023-08-27T21:31:19.805Z,17.05
2023-08-27T21:34:23.606Z,12.55
2023-08-27T21:37:21.625Z,16.90
2023-08-27T21:40:19.600Z,14.60
2023-08-27T21:43:16.702Z,15.95
2023-08-27T21:46:14.618Z,15.25
2023-08-27T21:49:12.902Z,19.08
2023-08-27T21:52:16.598Z,18.83
2023-08-27T21:55:07.683Z,15.73
2023-08-27T21:58:12.656Z,15.05
2023-08-27T22:01:03.749Z,18.58
2023-08-27T22:04:07.786Z,12.93
2023-08-27T22:06:58.640Z,14.98
2023-08-27T22:10:02.631Z,12.25
2023-08-27T22:12:53.721Z,13.52
2023-08-27T22:15:58.587Z,14.45
2023-08-27T22:18:49.750Z,14.07
2023-08-27T22:21:54.625Z,14.15
2023-08-27T22:24:46.692Z,15.32
2023-08-27T22:27:50.626Z,14.82
2023-08-27T22:30:41.762Z,16.17
2023-08-27T22:33:52.655Z,17.62
2023-08-27T22:36:50.223Z,13.73
2023-08-27T22:40:01.675Z,10.35
2023-08-27T22:42:58.865Z,10.10
2023-08-27T22:46:02.871Z,13.68
2023-08-27T22:48:53.865Z,12.35
2023-08-27T22:51:57.634Z,13.62
2023-08-27T22:55:08.597Z,16.05
2023-08-27T22:58:12.654Z,15.23
2023-08-27T23:01:10.805Z,11.73
2023-08-27T23:04:08.667Z,12.55
2023-08-27T23:07:19.629Z,16.17
2023-08-27T23:10:24.701Z,12.05
2023-08-27T23:13:22.719Z,10.90
2023-08-27T23:16:20.870Z,13.73
2023-08-27T23:19:17.699Z,15.82
2023-08-27T23:22:15.696Z,15.18
2023-08-27T23:25:13.705Z,13.77
2023-08-27T23:28:17.747Z,12.18
2023-08-27T23:31:08.741Z,15.02
2023-08-27T23:34:12.702Z,9.15
2023-08-27T23:37:03.722Z,8.55
2023-08-27T23:40:07.685Z,10.38
2023-08-27T23:42:58.793Z,12.37
2023-08-27T23:46:02.690Z,11.27
2023-08-27T23:48:53.722Z,10.82
2023-08-27T23:51:57.694Z,12.25
2023-08-27T23:54:48.789Z,12.68
2023-08-27T23:57:52.741Z,10.38
